createdAt,value
2018-11-26T00:00:15.912Z,12.188
2018-11-26T00:03:15.736Z,11.312
2018-11-26T00:06:15.500Z,16.050
2018-11-26T00:09:15.336Z,10.562
2018-11-26T00:12:14.992Z,11.287
2018-11-26T00:15:15.789Z,9.037
2018-11-26T00:18:15.466Z,10.837
2018-11-26T00:21:15.466Z,10.863
2018-11-26T00:24:15.307Z,9.238
2018-11-26T00:27:15.480Z,8.500
2018-11-26T00:30:15.085Z,8.988
2018-11-26T00:33:15.743Z,13.888
2018-11-26T00:36:15.329Z,10.413
2018-11-26T00:39:15.095Z,9.175
2018-11-26T00:42:15.815Z,8.538
2018-11-26T00:45:15.642Z,9.750
2018-11-26T00:48:15.478Z,9.275
2018-11-26T00:51:15.229Z,8.887
2018-11-26T00:54:15.995Z,8.675
2018-11-26T00:57:15.708Z,9.987
2018-11-26T01:00:15.478Z,11.188
2018-11-26T01:03:15.062Z,9.650
2018-11-26T01:06:15.635Z,8.387
2018-11-26T01:09:15.365Z,11.825
2018-11-26T01:12:15.331Z,9.162
2018-11-26T01:15:15.098Z,6.638
2018-11-26T01:18:14.890Z,8.012
2018-11-26T01:21:15.589Z,13.775
2018-11-26T01:24:15.281Z,9.375
2018-11-26T01:27:14.989Z,7.875
2018-11-26T01:30:15.797Z,9.662
2018-11-26T01:33:15.499Z,11.150
2018-11-26T01:36:15.159Z,10.325
2018-11-26T01:39:15.755Z,9.338
2018-11-26T01:42:15.364Z,10.650
2018-11-26T01:45:14.964Z,11.837
2018-11-26T01:48:15.913Z,11.587
2018-11-26T01:51:15.566Z,12.588
2018-11-26T01:54:15.160Z,10.050
2018-11-26T01:57:15.805Z,9.412
2018-11-26T02:00:15.657Z,6.525
2018-11-26T02:03:15.014Z,15.800
2018-11-26T02:06:15.824Z,10.200
2018-11-26T02:09:15.440Z,10.662
2018-11-26T02:12:15.108Z,10.500
2018-11-26T02:15:15.804Z,9.213
2018-11-26T02:18:14.944Z,15.188
2018-11-26T02:21:15.662Z,7.987
2018-11-26T02:24:15.490Z,8.500
2018-11-26T02:27:15.071Z,7.800
2018-11-26T02:30:15.788Z,8.175
2018-11-26T02:33:15.505Z,14.450
2018-11-26T02:36:15.163Z,9.988
2018-11-26T02:39:14.870Z,11.950
2018-11-26T02:42:15.482Z,9.500
2018-11-26T02:45:15.202Z,8.900
2018-11-26T02:48:15.039Z,6.263
2018-11-26T02:51:15.598Z,10.275
2018-11-26T02:54:15.364Z,6.750
2018-11-26T02:57:15.006Z,15.125
2018-11-26T03:00:15.811Z,9.975
2018-11-26T03:03:15.510Z,7.000
2018-11-26T03:06:15.298Z,8.800
2018-11-26T03:09:15.906Z,6.475
2018-11-26T03:12:15.749Z,8.663
2018-11-26T03:15:15.433Z,9.125
2018-11-26T03:18:15.266Z,10.812
2018-11-26T03:21:14.989Z,15.775
2018-11-26T03:24:15.716Z,14.412
2018-11-26T03:27:15.310Z,10.525
2018-11-26T03:30:15.062Z,15.025
2018-11-26T03:33:15.672Z,8.900
2018-11-26T03:36:15.469Z,11.075
2018-11-26T03:39:15.071Z,10.850
2018-11-26T03:42:15.910Z,11.100
2018-11-26T03:45:15.728Z,13.025
2018-11-26T03:48:15.395Z,16.212
2018-11-26T03:51:15.213Z,12.863
2018-11-26T03:54:15.157Z,10.837
2018-11-26T03:57:15.763Z,13.963
2018-11-26T04:00:15.641Z,12.275
2018-11-26T04:03:15.407Z,11.938
2018-11-26T04:06:15.158Z,21.712
2018-11-26T04:09:15.873Z,16.075
2018-11-26T04:12:15.798Z,9.087
2018-11-26T04:15:15.568Z,11.000
2018-11-26T04:18:15.299Z,12.350
2018-11-26T04:21:15.155Z,12.613
2018-11-26T04:24:14.944Z,14.725
2018-11-26T04:27:15.566Z,15.037
2018-11-26T04:30:15.338Z,13.312
2018-11-26T04:33:15.141Z,12.413
2018-11-26T04:36:15.846Z,21.587
2018-11-26T04:39:15.652Z,17.625
2018-11-26T04:42:15.172Z,10.000
2018-11-26T04:45:15.964Z,10.262
2018-11-26T04:48:15.709Z,13.500
2018-11-26T04:51:15.750Z,11.875
2018-11-26T04:54:15.878Z,14.712
2018-11-26T04:57:15.266Z,11.000
2018-11-26T05:00:15.512Z,13.412
2018-11-26T05:03:15.418Z,15.338
2018-11-26T05:06:15.092Z,14.838
2018-11-26T05:09:16.043Z,15.850
2018-11-26T05:12:15.857Z,13.575
2018-11-26T05:15:15.567Z,13.550
2018-11-26T05:18:15.725Z,12.287
2018-11-26T05:21:15.510Z,13.350
2018-11-26T05:24:15.413Z,14.200
2018-11-26T05:27:15.705Z,10.600
2018-11-26T05:30:15.274Z,21.450
2018-11-26T05:33:15.145Z,14.963
2018-11-26T05:36:14.850Z,12.425
2018-11-26T05:39:15.777Z,10.287
2018-11-26T05:42:15.578Z,18.737
2018-11-26T05:45:15.363Z,15.687
2018-11-26T05:48:15.090Z,13.062
2018-11-26T05:51:15.832Z,14.025
2018-11-26T05:54:15.692Z,14.875
2018-11-26T05:57:15.516Z,13.975
2018-11-26T06:00:15.706Z,20.100
2018-11-26T06:03:15.629Z,8.975
2018-11-26T06:06:15.421Z,15.875
2018-11-26T06:09:15.219Z,12.625
2018-11-26T06:12:15.071Z,12.300
2018-11-26T06:15:17.084Z,14.825
2018-11-26T06:18:15.586Z,13.875
2018-11-26T06:21:15.493Z,30.475
2018-11-26T06:24:15.304Z,23.812
2018-11-26T06:27:16.271Z,15.500
2018-11-26T06:30:15.156Z,14.775
2018-11-26T06:33:14.985Z,13.675
2018-11-26T06:36:15.700Z,13.825
2018-11-26T06:39:15.525Z,14.200
2018-11-26T06:42:15.218Z,18.587
2018-11-26T06:45:15.114Z,15.475
2018-11-26T06:48:15.864Z,14.962
2018-11-26T06:51:15.911Z,15.000
2018-11-26T06:54:15.791Z,14.800
2018-11-26T06:57:15.571Z,15.075
2018-11-26T07:00:15.210Z,15.100
2018-11-26T07:03:15.015Z,14.337
2018-11-26T07:06:15.798Z,10.300
2018-11-26T07:09:15.694Z,14.250
2018-11-26T07:12:15.477Z,11.562
2018-11-26T07:15:15.445Z,12.212
2018-11-26T07:18:15.275Z,23.000
2018-11-26T07:21:15.033Z,18.875
2018-11-26T07:24:15.803Z,10.387
2018-11-26T07:27:15.414Z,11.512
2018-11-26T07:30:15.255Z,16.450
2018-11-26T07:33:15.555Z,7.450
2018-11-26T07:36:15.399Z,14.362
2018-11-26T07:39:15.194Z,12.988
2018-11-26T07:42:15.034Z,9.700
2018-11-26T07:45:15.802Z,11.050
2018-11-26T07:48:15.613Z,12.713
2018-11-26T07:51:15.392Z,7.312
2018-11-26T07:54:15.286Z,9.863
2018-11-26T07:57:15.114Z,9.225
2018-11-26T08:00:14.973Z,13.212
2018-11-26T08:03:15.609Z,15.113
2018-11-26T08:06:15.415Z,10.400
2018-11-26T08:09:15.381Z,13.062
2018-11-26T08:12:15.218Z,13.675
2018-11-26T08:15:15.977Z,9.400
2018-11-26T08:18:15.592Z,12.637
2018-11-26T08:21:15.276Z,11.325
2018-11-26T08:24:15.180Z,8.312
2018-11-26T08:27:14.971Z,10.363
2018-11-26T08:30:15.785Z,11.737
2018-11-26T08:33:15.297Z,10.112
2018-11-26T08:36:15.276Z,14.125
2018-11-26T08:39:15.229Z,9.150
2018-11-26T08:42:15.883Z,10.012
2018-11-26T08:45:15.028Z,10.188
2018-11-26T08:48:15.303Z,11.012
2018-11-26T08:51:15.563Z,9.225
2018-11-26T08:54:15.442Z,11.812
2018-11-26T08:57:15.246Z,9.312
2018-11-26T09:00:15.018Z,12.300
2018-11-26T09:03:15.841Z,8.012
2018-11-26T09:06:15.371Z,7.825
2018-11-26T09:09:15.343Z,9.113
2018-11-26T09:12:15.554Z,12.412
2018-11-26T09:15:15.407Z,6.750
2018-11-26T09:18:15.270Z,12.738
2018-11-26T09:21:15.288Z,8.975
2018-11-26T09:24:15.218Z,10.925
2018-11-26T09:27:15.150Z,12.038
2018-11-26T09:30:14.922Z,6.525
2018-11-26T09:33:15.642Z,7.237
2018-11-26T09:36:15.573Z,6.438
2018-11-26T09:39:15.537Z,7.987
2018-11-26T09:42:15.514Z,6.500
2018-11-26T09:45:15.261Z,10.012
2018-11-26T09:48:15.037Z,10.787
2018-11-26T09:51:15.702Z,8.488
2018-11-26T09:54:15.880Z,7.075
2018-11-26T09:57:15.707Z,7.625
2018-11-26T10:00:15.591Z,3.375
2018-11-26T10:03:14.960Z,9.363
2018-11-26T10:06:15.642Z,7.150
2018-11-26T10:09:15.627Z,4.662
2018-11-26T10:12:15.427Z,4.600
2018-11-26T10:15:15.386Z,5.812
2018-11-26T10:18:20.049Z,8.713
2018-11-26T10:21:15.852Z,7.150
2018-11-26T10:24:15.773Z,7.850
2018-11-26T10:27:15.589Z,5.362
2018-11-26T10:30:15.471Z,5.587
2018-11-26T10:33:15.331Z,7.500
2018-11-26T10:36:15.226Z,4.625
2018-11-26T10:39:15.084Z,3.337
2018-11-26T10:42:16.064Z,7.062
2018-11-26T10:45:15.911Z,5.737
2018-11-26T10:48:15.094Z,3.550
2018-11-26T10:51:15.881Z,4.775
2018-11-26T10:54:15.904Z,4.700
2018-11-26T10:57:15.653Z,6.088
2018-11-26T11:00:15.486Z,7.650
2018-11-26T11:03:15.747Z,5.900
2018-11-26T11:06:15.880Z,4.688
2018-11-26T11:09:15.764Z,6.200
2018-11-26T11:12:15.699Z,3.525
2018-11-26T11:15:15.541Z,3.775
2018-11-26T11:18:15.472Z,5.463
2018-11-26T11:21:20.447Z,3.663
2018-11-26T11:24:15.397Z,5.662
2018-11-26T11:27:15.162Z,5.525
2018-11-26T11:30:15.307Z,4.862
2018-11-26T11:36:15.202Z,8.025
2018-11-26T11:39:15.274Z,6.088
2018-11-26T11:42:15.156Z,6.100
2018-11-26T11:45:15.004Z,2.438
2018-11-26T11:48:15.380Z,8.238
2018-11-26T11:51:15.214Z,9.538
2018-11-26T11:54:16.042Z,11.062
2018-11-26T11:57:15.296Z,6.375
2018-11-26T12:00:15.240Z,6.212
2018-11-26T12:03:15.820Z,3.600
2018-11-26T12:06:15.941Z,7.513
2018-11-26T12:09:15.718Z,4.250
2018-11-26T12:12:15.657Z,4.650
2018-11-26T12:15:15.229Z,2.863
2018-11-26T12:18:15.107Z,3.812
2018-11-26T12:21:15.896Z,5.312
2018-11-26T12:24:15.724Z,8.325
2018-11-26T12:27:15.704Z,6.300
2018-11-26T12:30:15.447Z,5.438
2018-11-26T12:33:15.170Z,7.575
2018-11-26T12:36:15.900Z,7.000
2018-11-26T12:39:15.802Z,7.412
2018-11-26T12:42:15.713Z,4.775
2018-11-26T12:45:15.509Z,6.912
2018-11-26T12:48:15.497Z,6.325
2018-11-26T12:51:15.406Z,3.850
2018-11-26T12:54:15.174Z,4.500
2018-11-26T12:57:14.978Z,9.200
2018-11-26T13:00:15.815Z,5.562
2018-11-26T13:03:15.045Z,5.763
2018-11-26T13:06:15.741Z,6.463
2018-11-26T13:09:15.601Z,5.388
2018-11-26T13:12:15.924Z,5.213
2018-11-26T13:15:15.656Z,6.775
2018-11-26T13:18:15.570Z,6.338
2018-11-26T13:21:15.774Z,4.237
2018-11-26T13:24:15.544Z,8.400
2018-11-26T13:27:15.436Z,8.137
2018-11-26T13:30:15.254Z,5.162
2018-11-26T13:33:15.513Z,6.438
2018-11-26T13:36:15.544Z,8.763
2018-11-26T13:39:15.791Z,7.975
2018-11-26T13:42:15.496Z,5.713
2018-11-26T13:45:15.379Z,6.400
2018-11-26T13:48:15.129Z,6.225
2018-11-26T13:51:15.079Z,6.300
2018-11-26T13:54:15.847Z,5.500
2018-11-26T13:57:15.950Z,5.425
2018-11-26T14:00:15.728Z,7.013
2018-11-26T14:03:15.833Z,6.013
2018-11-26T14:06:15.702Z,12.262
2018-11-26T14:09:15.599Z,10.350
2018-11-26T14:12:15.455Z,7.037
2018-11-26T14:15:15.284Z,7.725
2018-11-26T14:18:15.404Z,4.950
2018-11-26T14:21:15.354Z,5.387
2018-11-26T14:24:15.149Z,13.350
2018-11-26T14:27:15.226Z,4.950
2018-11-26T14:30:15.201Z,9.225
2018-11-26T14:33:15.263Z,8.338
2018-11-26T14:36:15.179Z,8.150
2018-11-26T14:39:14.951Z,7.525
2018-11-26T14:42:15.925Z,8.050
2018-11-26T14:45:15.875Z,7.213
2018-11-26T14:48:15.824Z,6.612
2018-11-26T14:51:15.529Z,3.712
2018-11-26T14:54:15.386Z,8.600
2018-11-26T14:57:15.268Z,5.612
2018-11-26T15:00:15.058Z,5.250
2018-11-26T15:03:15.757Z,3.675
2018-11-26T15:06:15.691Z,7.688
2018-11-26T15:09:15.423Z,3.025
2018-11-26T15:12:15.300Z,6.188
2018-11-26T15:15:15.147Z,4.875
2018-11-26T15:18:15.653Z,2.875
2018-11-26T15:21:15.605Z,7.675
2018-11-26T15:24:15.566Z,4.800
2018-11-26T15:27:15.584Z,7.450
2018-11-26T15:30:15.440Z,6.275
2018-11-26T15:33:15.201Z,6.362
2018-11-26T15:36:15.053Z,4.812
2018-11-26T15:39:15.015Z,7.975
2018-11-26T15:42:15.929Z,6.463
2018-11-26T15:45:14.961Z,9.650
2018-11-26T15:48:15.326Z,7.150
2018-11-26T15:51:15.448Z,6.000
2018-11-26T15:54:15.046Z,3.100
2018-11-26T15:57:15.770Z,6.375
2018-11-26T16:00:15.447Z,3.113
2018-11-26T16:03:16.081Z,3.438
2018-11-26T16:06:15.812Z,9.225
2018-11-26T16:09:15.731Z,7.875
2018-11-26T16:12:15.693Z,6.500
2018-11-26T16:15:15.626Z,4.525
2018-11-26T16:18:15.815Z,3.038
2018-11-26T16:21:15.602Z,5.850
2018-11-26T16:24:15.603Z,8.500
2018-11-26T16:27:15.336Z,4.625
2018-11-26T16:30:15.554Z,6.200
2018-11-26T16:33:15.467Z,3.788
2018-11-26T16:36:15.371Z,7.300
2018-11-26T16:39:15.308Z,6.375
2018-11-26T16:42:15.118Z,3.325
2018-11-26T16:45:14.910Z,7.263
2018-11-26T16:48:16.071Z,10.062
2018-11-26T16:51:15.800Z,9.125
2018-11-26T16:54:15.681Z,7.125
2018-11-26T16:57:15.622Z,9.800
2018-11-26T17:00:15.596Z,3.737
2018-11-26T17:03:15.852Z,5.300
2018-11-26T17:06:15.951Z,7.487
2018-11-26T17:09:15.871Z,5.487
2018-11-26T17:12:15.860Z,10.688
2018-11-26T17:15:15.687Z,7.737
2018-11-26T17:18:15.697Z,11.113
2018-11-26T17:21:15.534Z,5.025
2018-11-26T17:24:15.424Z,6.463
2018-11-26T17:27:15.321Z,6.800
2018-11-26T17:30:15.047Z,7.188
2018-11-26T17:33:15.786Z,9.862
2018-11-26T17:36:15.740Z,20.475
2018-11-26T17:39:15.692Z,10.413
2018-11-26T17:42:15.907Z,7.312
2018-11-26T17:45:15.823Z,6.275
2018-11-26T17:48:15.262Z,6.800
2018-11-26T17:51:15.297Z,8.900
2018-11-26T17:54:15.094Z,7.425
2018-11-26T17:57:15.921Z,6.175
2018-11-26T18:00:15.696Z,4.425
2018-11-26T18:03:15.626Z,6.487
2018-11-26T18:06:15.551Z,6.312
2018-11-26T18:09:15.451Z,13.987
2018-11-26T18:12:15.169Z,8.888
2018-11-26T18:15:14.996Z,7.475
2018-11-26T18:18:15.862Z,9.025
2018-11-26T18:21:15.675Z,7.625
2018-11-26T18:24:15.549Z,8.800
2018-11-26T18:27:15.540Z,10.050
2018-11-26T18:30:15.395Z,5.287
2018-11-26T18:33:15.382Z,6.925
2018-11-26T18:36:15.318Z,6.475
2018-11-26T18:39:15.186Z,7.125
2018-11-26T18:42:15.042Z,7.037
2018-11-26T18:45:15.832Z,4.200
2018-11-26T18:48:15.979Z,5.438
2018-11-26T18:51:15.798Z,5.588
2018-11-26T18:54:15.695Z,10.787
2018-11-26T18:57:15.381Z,14.500
2018-11-26T19:00:15.353Z,12.325
2018-11-26T19:03:14.957Z,6.488
2018-11-26T19:06:15.784Z,6.438
2018-11-26T19:09:15.601Z,8.463
2018-11-26T19:12:15.650Z,7.938
2018-11-26T19:15:15.582Z,8.900
2018-11-26T19:18:15.037Z,9.500
2018-11-26T19:21:15.793Z,8.463
2018-11-26T19:24:15.775Z,9.800
2018-11-26T19:27:15.558Z,13.387
2018-11-26T19:30:15.411Z,15.113
2018-11-26T19:33:15.015Z,11.787
2018-11-26T19:36:15.944Z,10.825
2018-11-26T19:39:15.587Z,5.675
2018-11-26T19:42:15.420Z,9.225
2018-11-26T19:45:15.415Z,14.300
2018-11-26T19:48:16.017Z,8.900
2018-11-26T19:51:15.199Z,10.213
2018-11-26T19:54:15.156Z,11.587
2018-11-26T19:57:15.005Z,3.600
2018-11-26T20:00:15.927Z,7.862
2018-11-26T20:03:15.485Z,6.425
2018-11-26T20:06:20.513Z,10.650
2018-11-26T20:09:15.320Z,8.300
2018-11-26T20:12:15.410Z,9.162
2018-11-26T20:15:15.192Z,4.250
2018-11-26T20:18:15.123Z,8.488
2018-11-26T20:21:15.369Z,4.500
2018-11-26T20:24:15.392Z,7.800
2018-11-26T20:27:15.502Z,11.562
2018-11-26T20:30:15.999Z,8.975
2018-11-26T20:33:19.210Z,5.775
2018-11-26T20:36:15.132Z,10.988
2018-11-26T20:39:15.040Z,13.750
2018-11-26T20:42:15.167Z,11.012
2018-11-26T20:45:14.994Z,14.075
2018-11-26T20:48:15.849Z,9.137
2018-11-26T20:51:15.365Z,7.638
2018-11-26T20:54:15.300Z,29.987
2018-11-26T20:57:16.407Z,15.162
2018-11-26T21:00:15.334Z,18.438
2018-11-26T21:03:15.886Z,8.975
2018-11-26T21:06:15.155Z,9.887
2018-11-26T21:09:15.084Z,9.838
2018-11-26T21:12:15.820Z,13.238
2018-11-26T21:15:15.847Z,9.550
2018-11-26T21:18:15.825Z,10.275
2018-11-26T21:21:15.808Z,11.337
2018-11-26T21:24:15.782Z,10.912
2018-11-26T21:27:15.365Z,15.475
2018-11-26T21:30:15.204Z,8.938
2018-11-26T21:33:16.013Z,5.562
2018-11-26T21:36:15.488Z,10.250
2018-11-26T21:39:16.158Z,8.150
2018-11-26T21:42:15.508Z,10.400
2018-11-26T21:45:15.902Z,9.787
2018-11-26T21:48:14.987Z,8.213
2018-11-26T21:51:15.633Z,10.738
2018-11-26T21:54:15.642Z,9.588
2018-11-26T21:57:15.878Z,8.113
2018-11-26T22:00:15.748Z,10.775
2018-11-26T22:03:15.050Z,8.363
2018-11-26T22:06:15.294Z,7.138
2018-11-26T22:09:15.486Z,10.462
2018-11-26T22:12:15.466Z,13.062
2018-11-26T22:15:15.258Z,7.388
2018-11-26T22:18:15.236Z,5.600
2018-11-26T22:21:15.123Z,6.812
2018-11-26T22:24:14.952Z,4.963
2018-11-26T22:27:15.684Z,7.963
2018-11-26T22:30:15.278Z,6.875
2018-11-26T22:33:15.683Z,7.088
2018-11-26T22:36:15.400Z,6.375
2018-11-26T22:39:15.273Z,4.175
2018-11-26T22:42:15.098Z,6.512
2018-11-26T22:45:15.806Z,5.950
2018-11-26T22:48:15.521Z,7.350
2018-11-26T22:51:15.328Z,4.562
2018-11-26T22:54:15.241Z,6.812
2018-11-26T22:57:15.129Z,4.537
2018-11-26T23:00:15.726Z,4.862
2018-11-26T23:03:15.433Z,5.938
2018-11-26T23:06:15.553Z,7.600
2018-11-26T23:09:15.192Z,2.675
2018-11-26T23:12:14.998Z,5.325
2018-11-26T23:15:15.638Z,2.900
2018-11-26T23:18:15.413Z,5.450
2018-11-26T23:21:15.084Z,6.113
2018-11-26T23:24:15.878Z,5.912
2018-11-26T23:27:15.734Z,4.588
2018-11-26T23:30:15.562Z,4.963
2018-11-26T23:33:15.595Z,4.875
2018-11-26T23:36:15.210Z,5.963
2018-11-26T23:39:15.777Z,5.225
2018-11-26T23:42:15.500Z,4.312
2018-11-26T23:45:15.135Z,2.900
2018-11-26T23:48:15.707Z,5.325
2018-11-26T23:51:15.228Z,6.613
2018-11-26T23:54:15.912Z,2.038
2018-11-26T23:57:15.721Z,3.663
